METAR Data
IDs: Format: Raw Decoded Include TAF

Data at: 2221 UTC 25 Oct 2021

KLRD 252156Z 13011KT 10SM CLR 36/21 A2985 RMK AO2 SLP103 T03560211
KLRD 252056Z 14010KT 10SM CLR 36/21 A2986 RMK AO2 SLP106 T03560206 56026
KLRD 251956Z 13008KT 10SM CLR 35/21 A2987 RMK AO2 SLP111 T03500211
KLRD 251856Z 12011KT 10SM CLR 34/22 A2991 RMK AO2 SLP122 T03390222
KLRD 251756Z 13010KT 10SM CLR 32/23 A2994 RMK AO2 SLP133 T03220228 10322 20228 58009
KLRD 251656Z 15007KT 10SM CLR 31/23 A2996 RMK AO2 SLP139 T03060233
KLRD 251556Z VRB04KT 10SM CLR 28/23 A2996 RMK AO2 SLP143 T02780233
KLRD 251523Z 12007KT 10SM SCT008 27/23 A2997 RMK AO2
KLRD 251456Z 13007KT 9SM OVC006 25/23 A2996 RMK AO2 CIG 005V009 SLP144 T02500228 51018
KLRD 251429Z 12009KT 7SM OVC004 24/23 A2996 RMK AO2
KLRD 251407Z 14011KT 9SM OVC006 24/22 A2995 RMK AO2
KLRD 251356Z 13008KT 9SM OVC004 23/22 A2994 RMK AO2 SLP136 T02330222
KLRD 251337Z 13005KT 7SM OVC004 23/22 A2993 RMK AO2
KLRD 251326Z 12005KT 7SM BKN006 23/22 A2992 RMK AO2
KLRD 251310Z 13005KT 7SM FEW006 23/22 A2992 RMK AO2
KLRD 251256Z 13005KT 7SM CLR 23/22 A2991 RMK AO2 SLP126 T02280222
KLRD 251156Z 12006KT 9SM CLR 23/22 A2990 RMK AO2 SLP122 T02280222 10256 20228 53002
KLRD 251109Z 14006KT 10SM SCT007 23/22 A2990 RMK AO2
KLRD 251056Z 14008KT 10SM BKN007 23/22 A2990 RMK AO2 SLP120 T02330222
KLRD 251017Z AUTO 15009KT 10SM BKN007 23/23 A2990 RMK AO2
KLRD 251008Z AUTO 15007KT 10SM SCT007 23/22 A2990 RMK AO2
KLRD 250956Z AUTO 14009KT 10SM CLR 23/22 A2989 RMK AO2 SLP118 T02330222
KLRD 250856Z AUTO 12005KT 10SM CLR 24/22 A2990 RMK AO2 SLP119 T02390222 50004
KLRD 250756Z AUTO 12007KT 10SM CLR 24/22 A2990 RMK AO2 SLP122 T02390222
KLRD 250656Z AUTO 08004KT 10SM CLR 24/23 A2989 RMK AO2 SLP118 T02440228
KLRD 250556Z AUTO 10006KT 10SM CLR 26/23 A2988 RMK AO2 SLP116 T02560228 10322 20256 403500233 51017
KLRD 250456Z AUTO 13008KT 10SM CLR 27/23 A2987 RMK AO2 SLP113 T02670228
KLRD 250356Z 13008KT 10SM CLR 28/21 A2985 RMK AO2 SLP106 T02780211
KLRD 250256Z 13008KT 10SM CLR 28/21 A2984 RMK AO2 SLP100 T02830211 53025
KLRD 250156Z 13007KT 10SM CLR 29/19 A2981 RMK AO2 SLP091 T02940194
KLRD 250057Z COR 10007KT 10SM CLR 31/19 A2978
KLRD 250056Z AUTO 10004KT 10SM CLR 31/19 A2978 RMK AO2 SLP080 T03060194
KLRD 242356Z AUTO 15005KT 10SM CLR 32/19 A2976 RMK AO2 SLP074 T03220194 10350 20306 56004
KLRD 242256Z AUTO 11007KT 10SM CLR 35/19 A2976 RMK AO2 SLP073 T03500194
KLRD 242156Z AUTO 12004KT 10SM CLR 35/21 A2977 RMK AO2 SLP075 T03500211
KLRD 242056Z AUTO 00000KT 10SM CLR 33/22 A2977 RMK AO2 SLP078 T03330217 56020
KLRD 241956Z AUTO VRB03KT 10SM CLR 33/22 A2978 RMK AO2 SLP081 T03280222
KLRD 241856Z AUTO 00000KT 10SM CLR 31/22 A2981 RMK AO2 SLP090 T03110217
KLRD 241756Z AUTO 17004KT 10SM CLR 31/23 A2983 RMK AO2 SLP098 T03060228 10306 20239 58005
KLRD 241656Z AUTO VRB03KT 10SM FEW020 28/22 A2985 RMK AO2 SLP106 T02830222
KLRD 241634Z AUTO 15003KT 10SM SCT018 28/22 A2986 RMK AO2
KLRD 241556Z AUTO 16005KT 10SM BKN016 27/23 A2986 RMK AO2 SLP109 T02720228
KLRD 241456Z AUTO 17007KT 10SM OVC012 26/22 A2985 RMK AO2 SLP103 T02560222 53019
KLRD 241356Z AUTO 14009KT 10SM OVC010 24/22 A2983 RMK AO2 SLP097 T02440222
KLRD 241256Z AUTO 16008KT 10SM OVC010 24/22 A2980 RMK AO2 SLP090 T02390222
KLRD 241156Z AUTO 14011KT 10SM OVC010 24/22 A2979 RMK AO2 SLP085 T02390222 10244 20233 53003
KLRD 241056Z AUTO 16009KT 10SM OVC010 24/22 A2978 RMK AO2 SLP080 T02390222
KLRD 241054Z AUTO 16010KT 10SM OVC010 24/22 A2978 RMK AO2